sensor_id;sensor_type;location;lat;lon;timestamp;P1;durP1;ratioP1;P2;durP2;ratioP2
52494;SDS011;38405;53.212;5.660;2023-03-21T00:00:43;81.05;;;15.68;;
52494;SDS011;38405;53.212;5.660;2023-03-21T00:03:09;106.72;;;17.05;;
52494;SDS011;38405;53.212;5.660;2023-03-21T00:05:41;105.38;;;15.95;;
52494;SDS011;38405;53.212;5.660;2023-03-21T00:08:13;91.72;;;15.75;;
52494;SDS011;38405;53.212;5.660;2023-03-21T00:10:40;110.32;;;14.98;;
52494;SDS011;38405;53.212;5.660;2023-03-21T00:13:06;116.15;;;16.25;;
52494;SDS011;38405;53.212;5.660;2023-03-21T00:15:31;104.38;;;16.25;;
52494;SDS011;38405;53.212;5.660;2023-03-21T00:17:57;89.82;;;15.85;;
52494;SDS011;38405;53.212;5.660;2023-03-21T00:20:31;71.28;;;14.75;;
52494;SDS011;38405;53.212;5.660;2023-03-21T00:23:02;75.53;;;15.23;;
52494;SDS011;38405;53.212;5.660;2023-03-21T00:25:28;58.03;;;13.75;;
52494;SDS011;38405;53.212;5.660;2023-03-21T00:27:55;54.67;;;13.38;;
52494;SDS011;38405;53.212;5.660;2023-03-21T00:30:21;63.53;;;14.13;;
52494;SDS011;38405;53.212;5.660;2023-03-21T00:32:47;57.50;;;13.50;;
52494;SDS011;38405;53.212;5.660;2023-03-21T00:35:13;63.55;;;14.48;;
52494;SDS011;38405;53.212;5.660;2023-03-21T00:37:40;75.05;;;15.90;;
52494;SDS011;38405;53.212;5.660;2023-03-21T00:40:06;63.67;;;16.13;;
52494;SDS011;38405;53.212;5.660;2023-03-21T00:42:35;57.88;;;16.17;;
52494;SDS011;38405;53.212;5.660;2023-03-21T00:45:01;77.47;;;18.10;;
52494;SDS011;38405;53.212;5.660;2023-03-21T00:47:28;78.18;;;17.02;;
52494;SDS011;38405;53.212;5.660;2023-03-21T00:49:54;69.70;;;18.60;;
52494;SDS011;38405;53.212;5.660;2023-03-21T00:52:20;120.10;;;20.45;;
52494;SDS011;38405;53.212;5.660;2023-03-21T00:54:46;106.40;;;19.92;;
52494;SDS011;38405;53.212;5.660;2023-03-21T00:57:12;93.78;;;18.05;;
52494;SDS011;38405;53.212;5.660;2023-03-21T00:59:37;92.82;;;19.90;;
52494;SDS011;38405;53.212;5.660;2023-03-21T01:02:03;84.72;;;19.25;;
52494;SDS011;38405;53.212;5.660;2023-03-21T01:04:31;101.03;;;20.23;;
52494;SDS011;38405;53.212;5.660;2023-03-21T01:06:58;84.32;;;18.30;;
52494;SDS011;38405;53.212;5.660;2023-03-21T01:09:25;108.93;;;20.67;;
52494;SDS011;38405;53.212;5.660;2023-03-21T01:11:50;83.72;;;20.45;;
52494;SDS011;38405;53.212;5.660;2023-03-21T01:14:17;77.32;;;19.42;;
52494;SDS011;38405;53.212;5.660;2023-03-21T01:16:45;96.10;;;21.45;;
52494;SDS011;38405;53.212;5.660;2023-03-21T01:19:12;80.18;;;19.08;;
52494;SDS011;38405;53.212;5.660;2023-03-21T01:21:40;95.28;;;20.52;;
52494;SDS011;38405;53.212;5.660;2023-03-21T01:24:07;69.95;;;19.15;;
52494;SDS011;38405;53.212;5.660;2023-03-21T01:26:32;52.78;;;17.02;;
52494;SDS011;38405;53.212;5.660;2023-03-21T01:28:58;86.72;;;19.73;;
52494;SDS011;38405;53.212;5.660;2023-03-21T01:31:24;91.03;;;21.00;;
52494;SDS011;38405;53.212;5.660;2023-03-21T01:33:50;111.22;;;20.58;;
52494;SDS011;38405;53.212;5.660;2023-03-21T01:36:17;79.78;;;21.08;;
52494;SDS011;38405;53.212;5.660;2023-03-21T01:38:47;67.72;;;21.08;;
52494;SDS011;38405;53.212;5.660;2023-03-21T01:41:32;86.88;;;21.38;;
52494;SDS011;38405;53.212;5.660;2023-03-21T01:44:03;67.20;;;20.90;;
52494;SDS011;38405;53.212;5.660;2023-03-21T01:49:21;87.50;;;23.95;;
52494;SDS011;38405;53.212;5.660;2023-03-21T01:51:57;92.22;;;26.10;;
52494;SDS011;38405;53.212;5.660;2023-03-21T01:54:31;105.18;;;27.13;;
52494;SDS011;38405;53.212;5.660;2023-03-21T01:57:03;102.65;;;29.92;;
52494;SDS011;38405;53.212;5.660;2023-03-21T02:02:11;83.82;;;25.35;;
52494;SDS011;38405;53.212;5.660;2023-03-21T02:04:42;69.10;;;23.58;;
52494;SDS011;38405;53.212;5.660;2023-03-21T02:07:32;89.10;;;23.70;;
52494;SDS011;38405;53.212;5.660;2023-03-21T02:10:01;86.70;;;24.75;;
52494;SDS011;38405;53.212;5.660;2023-03-21T02:12:32;139.07;;;27.35;;
52494;SDS011;38405;53.212;5.660;2023-03-21T02:14:58;136.60;;;26.95;;
52494;SDS011;38405;53.212;5.660;2023-03-21T02:17:32;138.95;;;25.80;;
52494;SDS011;38405;53.212;5.660;2023-03-21T02:44:41;118.63;;;25.33;;
52494;SDS011;38405;53.212;5.660;2023-03-21T02:49:42;69.70;;;21.80;;
52494;SDS011;38405;53.212;5.660;2023-03-21T02:52:15;81.82;;;22.73;;
52494;SDS011;38405;53.212;5.660;2023-03-21T02:54:44;51.22;;;20.27;;
52494;SDS011;38405;53.212;5.660;2023-03-21T02:57:12;53.45;;;21.52;;
52494;SDS011;38405;53.212;5.660;2023-03-21T02:59:40;54.17;;;21.40;;
52494;SDS011;38405;53.212;5.660;2023-03-21T03:02:07;48.70;;;20.33;;
52494;SDS011;38405;53.212;5.660;2023-03-21T03:04:33;52.35;;;20.20;;
52494;SDS011;38405;53.212;5.660;2023-03-21T03:13:01;54.60;;;19.02;;
52494;SDS011;38405;53.212;5.660;2023-03-21T03:18:13;55.58;;;18.85;;
52494;SDS011;38405;53.212;5.660;2023-03-21T03:21:08;64.13;;;19.13;;
52494;SDS011;38405;53.212;5.660;2023-03-21T03:23:49;77.80;;;21.25;;
52494;SDS011;38405;53.212;5.660;2023-03-21T03:26:25;76.30;;;20.15;;
52494;SDS011;38405;53.212;5.660;2023-03-21T03:29:03;90.32;;;20.33;;
52494;SDS011;38405;53.212;5.660;2023-03-21T03:31:33;95.18;;;22.05;;
52494;SDS011;38405;53.212;5.660;2023-03-21T03:34:04;109.63;;;22.20;;
52494;SDS011;38405;53.212;5.660;2023-03-21T03:36:34;120.88;;;23.60;;
52494;SDS011;38405;53.212;5.660;2023-03-21T03:39:07;90.60;;;21.33;;
52494;SDS011;38405;53.212;5.660;2023-03-21T03:41:39;139.27;;;24.92;;
52494;SDS011;38405;53.212;5.660;2023-03-21T03:44:09;105.70;;;22.27;;
52494;SDS011;38405;53.212;5.660;2023-03-21T03:46:38;122.60;;;21.90;;
52494;SDS011;38405;53.212;5.660;2023-03-21T03:49:16;125.75;;;20.00;;
52494;SDS011;38405;53.212;5.660;2023-03-21T03:51:56;187.48;;;26.58;;
52494;SDS011;38405;53.212;5.660;2023-03-21T03:54:33;137.50;;;22.85;;
52494;SDS011;38405;53.212;5.660;2023-03-21T03:57:02;141.50;;;22.92;;
52494;SDS011;38405;53.212;5.660;2023-03-21T03:59:30;106.32;;;21.05;;
52494;SDS011;38405;53.212;5.660;2023-03-21T04:01:59;97.95;;;20.75;;
52494;SDS011;38405;53.212;5.660;2023-03-21T04:04:24;151.15;;;24.27;;
52494;SDS011;38405;53.212;5.660;2023-03-21T04:06:53;116.78;;;21.30;;
52494;SDS011;38405;53.212;5.660;2023-03-21T04:09:19;119.43;;;21.00;;
52494;SDS011;38405;53.212;5.660;2023-03-21T04:11:45;126.90;;;21.52;;
52494;SDS011;38405;53.212;5.660;2023-03-21T04:14:11;107.40;;;20.70;;
52494;SDS011;38405;53.212;5.660;2023-03-21T04:16:36;112.40;;;21.20;;
52494;SDS011;38405;53.212;5.660;2023-03-21T04:19:03;109.68;;;21.35;;
52494;SDS011;38405;53.212;5.660;2023-03-21T04:21:28;93.90;;;20.50;;
52494;SDS011;38405;53.212;5.660;2023-03-21T04:23:54;135.20;;;23.10;;
52494;SDS011;38405;53.212;5.660;2023-03-21T04:26:20;86.07;;;20.10;;
52494;SDS011;38405;53.212;5.660;2023-03-21T04:28:47;69.10;;;18.70;;
52494;SDS011;38405;53.212;5.660;2023-03-21T04:31:13;86.05;;;21.77;;
52494;SDS011;38405;53.212;5.660;2023-03-21T04:33:39;52.05;;;17.38;;
52494;SDS011;38405;53.212;5.660;2023-03-21T04:36:06;67.03;;;19.17;;
52494;SDS011;38405;53.212;5.660;2023-03-21T04:38:33;58.58;;;19.08;;
52494;SDS011;38405;53.212;5.660;2023-03-21T04:41:00;57.53;;;18.40;;
52494;SDS011;38405;53.212;5.660;2023-03-21T04:43:27;52.28;;;19.48;;
52494;SDS011;38405;53.212;5.660;2023-03-21T04:45:53;40.88;;;16.00;;
52494;SDS011;38405;53.212;5.660;2023-03-21T04:48:19;47.08;;;16.38;;
52494;SDS011;38405;53.212;5.660;2023-03-21T04:50:49;40.22;;;16.60;;
52494;SDS011;38405;53.212;5.660;2023-03-21T04:53:15;51.00;;;18.05;;
52494;SDS011;38405;53.212;5.660;2023-03-21T04:55:41;43.35;;;18.25;;
52494;SDS011;38405;53.212;5.660;2023-03-21T04:58:07;43.60;;;17.67;;
52494;SDS011;38405;53.212;5.660;2023-03-21T05:00:33;38.13;;;16.65;;
52494;SDS011;38405;53.212;5.660;2023-03-21T05:03:03;42.22;;;16.85;;
52494;SDS011;38405;53.212;5.660;2023-03-21T05:05:33;36.67;;;16.52;;
52494;SDS011;38405;53.212;5.660;2023-03-21T05:08:02;32.25;;;15.23;;
52494;SDS011;38405;53.212;5.660;2023-03-21T05:10:28;34.20;;;16.60;;
52494;SDS011;38405;53.212;5.660;2023-03-21T05:12:54;26.92;;;14.88;;
52494;SDS011;38405;53.212;5.660;2023-03-21T05:15:20;31.45;;;15.45;;
52494;SDS011;38405;53.212;5.660;2023-03-21T05:17:45;25.77;;;15.23;;
52494;SDS011;38405;53.212;5.660;2023-03-21T05:20:12;26.02;;;13.13;;
52494;SDS011;38405;53.212;5.660;2023-03-21T05:22:40;23.17;;;12.77;;
52494;SDS011;38405;53.212;5.660;2023-03-21T05:25:06;22.15;;;13.43;;
52494;SDS011;38405;53.212;5.660;2023-03-21T05:27:33;22.23;;;13.55;;
52494;SDS011;38405;53.212;5.660;2023-03-21T05:30:10;23.83;;;13.18;;
52494;SDS011;38405;53.212;5.660;2023-03-21T05:32:37;24.50;;;14.07;;
52494;SDS011;38405;53.212;5.660;2023-03-21T05:35:03;25.70;;;13.68;;
52494;SDS011;38405;53.212;5.660;2023-03-21T05:37:29;26.05;;;13.48;;
52494;SDS011;38405;53.212;5.660;2023-03-21T05:39:55;19.92;;;12.82;;
52494;SDS011;38405;53.212;5.660;2023-03-21T05:42:20;22.67;;;13.57;;
52494;SDS011;38405;53.212;5.660;2023-03-21T05:44:46;24.15;;;13.15;;
52494;SDS011;38405;53.212;5.660;2023-03-21T05:47:12;23.70;;;13.27;;
52494;SDS011;38405;53.212;5.660;2023-03-21T05:49:39;23.85;;;12.52;;
52494;SDS011;38405;53.212;5.660;2023-03-21T05:52:05;19.25;;;12.25;;
52494;SDS011;38405;53.212;5.660;2023-03-21T05:54:31;17.95;;;11.63;;
52494;SDS011;38405;53.212;5.660;2023-03-21T05:56:57;22.00;;;12.02;;
52494;SDS011;38405;53.212;5.660;2023-03-21T05:59:22;21.58;;;11.35;;
52494;SDS011;38405;53.212;5.660;2023-03-21T06:01:48;21.73;;;11.50;;
52494;SDS011;38405;53.212;5.660;2023-03-21T06:04:14;16.85;;;10.52;;
52494;SDS011;38405;53.212;5.660;2023-03-21T06:06:40;21.48;;;11.32;;
52494;SDS011;38405;53.212;5.660;2023-03-21T06:09:06;19.17;;;11.00;;
52494;SDS011;38405;53.212;5.660;2023-03-21T06:11:32;19.42;;;11.23;;
52494;SDS011;38405;53.212;5.660;2023-03-21T06:14:00;16.85;;;10.57;;
52494;SDS011;38405;53.212;5.660;2023-03-21T06:16:26;17.15;;;9.95;;
52494;SDS011;38405;53.212;5.660;2023-03-21T06:18:55;19.80;;;11.02;;
52494;SDS011;38405;53.212;5.660;2023-03-21T06:21:21;19.70;;;10.68;;
52494;SDS011;38405;53.212;5.660;2023-03-21T06:23:47;16.25;;;10.40;;
52494;SDS011;38405;53.212;5.660;2023-03-21T06:26:15;15.90;;;10.45;;
52494;SDS011;38405;53.212;5.660;2023-03-21T06:28:44;15.48;;;9.82;;
52494;SDS011;38405;53.212;5.660;2023-03-21T06:31:09;17.77;;;10.25;;
52494;SDS011;38405;53.212;5.660;2023-03-21T06:33:35;16.75;;;10.35;;
52494;SDS011;38405;53.212;5.660;2023-03-21T06:36:01;18.52;;;11.02;;
52494;SDS011;38405;53.212;5.660;2023-03-21T06:38:26;18.02;;;11.27;;
52494;SDS011;38405;53.212;5.660;2023-03-21T06:40:52;22.73;;;11.52;;
52494;SDS011;38405;53.212;5.660;2023-03-21T06:43:18;18.40;;;11.73;;
52494;SDS011;38405;53.212;5.660;2023-03-21T06:45:43;17.42;;;11.77;;
52494;SDS011;38405;53.212;5.660;2023-03-21T06:48:10;18.73;;;10.88;;
52494;SDS011;38405;53.212;5.660;2023-03-21T06:50:36;20.67;;;11.63;;
52494;SDS011;38405;53.212;5.660;2023-03-21T06:53:02;19.85;;;11.43;;
52494;SDS011;38405;53.212;5.660;2023-03-21T06:55:27;21.40;;;13.65;;
52494;SDS011;38405;53.212;5.660;2023-03-21T06:57:54;15.32;;;10.52;;
52494;SDS011;38405;53.212;5.660;2023-03-21T07:00:20;15.40;;;11.15;;
52494;SDS011;38405;53.212;5.660;2023-03-21T07:02:47;16.08;;;10.65;;
52494;SDS011;38405;53.212;5.660;2023-03-21T07:05:14;14.68;;;10.50;;
52494;SDS011;38405;53.212;5.660;2023-03-21T07:07:40;16.05;;;10.73;;
52494;SDS011;38405;53.212;5.660;2023-03-21T07:10:06;17.02;;;10.90;;
52494;SDS011;38405;53.212;5.660;2023-03-21T07:12:32;12.98;;;9.65;;
52494;SDS011;38405;53.212;5.660;2023-03-21T07:15:00;13.15;;;9.85;;
52494;SDS011;38405;53.212;5.660;2023-03-21T07:17:26;14.52;;;10.00;;
52494;SDS011;38405;53.212;5.660;2023-03-21T07:19:52;17.33;;;10.50;;
52494;SDS011;38405;53.212;5.660;2023-03-21T07:22:17;15.65;;;9.98;;
52494;SDS011;38405;53.212;5.660;2023-03-21T07:24:43;15.20;;;9.57;;
52494;SDS011;38405;53.212;5.660;2023-03-21T07:27:12;14.63;;;10.60;;
52494;SDS011;38405;53.212;5.660;2023-03-21T07:29:39;12.98;;;8.93;;
52494;SDS011;38405;53.212;5.660;2023-03-21T07:32:05;17.33;;;9.55;;
52494;SDS011;38405;53.212;5.660;2023-03-21T07:34:30;14.07;;;9.07;;
52494;SDS011;38405;53.212;5.660;2023-03-21T07:36:58;16.60;;;11.23;;
52494;SDS011;38405;53.212;5.660;2023-03-21T07:39:24;18.10;;;10.63;;
52494;SDS011;38405;53.212;5.660;2023-03-21T07:41:53;15.55;;;9.70;;
52494;SDS011;38405;53.212;5.660;2023-03-21T07:44:22;18.63;;;10.30;;
52494;SDS011;38405;53.212;5.660;2023-03-21T07:46:48;14.30;;;10.07;;
52494;SDS011;38405;53.212;5.660;2023-03-21T07:49:14;13.57;;;9.20;;
52494;SDS011;38405;53.212;5.660;2023-03-21T07:51:39;12.93;;;8.77;;
52494;SDS011;38405;53.212;5.660;2023-03-21T07:54:05;14.07;;;8.60;;
52494;SDS011;38405;53.212;5.660;2023-03-21T07:56:31;11.63;;;8.52;;
52494;SDS011;38405;53.212;5.660;2023-03-21T07:58:57;13.27;;;9.75;;
52494;SDS011;38405;53.212;5.660;2023-03-21T08:01:23;13.63;;;9.68;;
52494;SDS011;38405;53.212;5.660;2023-03-21T08:03:52;17.35;;;10.50;;
52494;SDS011;38405;53.212;5.660;2023-03-21T08:06:18;14.40;;;10.02;;
52494;SDS011;38405;53.212;5.660;2023-03-21T08:08:45;13.55;;;9.80;;
52494;SDS011;38405;53.212;5.660;2023-03-21T08:11:11;13.10;;;10.10;;
52494;SDS011;38405;53.212;5.660;2023-03-21T08:13:37;11.90;;;9.05;;
52494;SDS011;38405;53.212;5.660;2023-03-21T08:16:03;11.25;;;9.88;;
52494;SDS011;38405;53.212;5.660;2023-03-21T08:18:29;11.30;;;8.68;;
52494;SDS011;38405;53.212;5.660;2023-03-21T08:20:55;12.55;;;7.35;;
52494;SDS011;38405;53.212;5.660;2023-03-21T08:23:22;11.85;;;7.43;;
52494;SDS011;38405;53.212;5.660;2023-03-21T08:25:52;12.27;;;7.72;;
52494;SDS011;38405;53.212;5.660;2023-03-21T08:28:21;12.15;;;8.30;;
52494;SDS011;38405;53.212;5.660;2023-03-21T08:30:47;14.20;;;8.30;;
52494;SDS011;38405;53.212;5.660;2023-03-21T08:33:14;12.93;;;8.27;;
52494;SDS011;38405;53.212;5.660;2023-03-21T08:35:41;11.13;;;8.32;;
52494;SDS011;38405;53.212;5.660;2023-03-21T08:38:07;13.68;;;10.10;;
52494;SDS011;38405;53.212;5.660;2023-03-21T08:40:36;17.10;;;11.35;;
52494;SDS011;38405;53.212;5.660;2023-03-21T08:43:02;19.65;;;12.57;;
52494;SDS011;38405;53.212;5.660;2023-03-21T08:45:30;18.10;;;12.48;;
52494;SDS011;38405;53.212;5.660;2023-03-21T08:47:56;20.60;;;12.63;;
52494;SDS011;38405;53.212;5.660;2023-03-21T08:50:23;24.65;;;13.80;;
52494;SDS011;38405;53.212;5.660;2023-03-21T08:52:50;16.85;;;13.18;;
52494;SDS011;38405;53.212;5.660;2023-03-21T08:55:16;18.42;;;14.40;;
52494;SDS011;38405;53.212;5.660;2023-03-21T08:57:43;20.88;;;14.82;;
52494;SDS011;38405;53.212;5.660;2023-03-21T09:00:10;23.88;;;16.42;;
52494;SDS011;38405;53.212;5.660;2023-03-21T09:02:39;24.17;;;16.75;;
52494;SDS011;38405;53.212;5.660;2023-03-21T09:05:09;23.27;;;16.38;;
52494;SDS011;38405;53.212;5.660;2023-03-21T09:07:38;23.50;;;14.73;;
52494;SDS011;38405;53.212;5.660;2023-03-21T09:10:06;26.58;;;16.10;;
52494;SDS011;38405;53.212;5.660;2023-03-21T09:12:34;24.50;;;15.18;;
52494;SDS011;38405;53.212;5.660;2023-03-21T09:15:00;23.13;;;15.15;;
52494;SDS011;38405;53.212;5.660;2023-03-21T09:17:28;24.48;;;14.95;;
52494;SDS011;38405;53.212;5.660;2023-03-21T09:19:55;21.05;;;14.93;;
52494;SDS011;38405;53.212;5.660;2023-03-21T09:22:24;25.92;;;15.38;;
52494;SDS011;38405;53.212;5.660;2023-03-21T09:24:51;24.42;;;15.65;;
52494;SDS011;38405;53.212;5.660;2023-03-21T09:27:17;24.63;;;14.15;;
52494;SDS011;38405;53.212;5.660;2023-03-21T09:29:47;25.15;;;14.70;;
52494;SDS011;38405;53.212;5.660;2023-03-21T09:32:13;27.38;;;15.10;;
52494;SDS011;38405;53.212;5.660;2023-03-21T09:34:39;24.42;;;14.40;;
52494;SDS011;38405;53.212;5.660;2023-03-21T09:37:08;22.58;;;14.98;;
52494;SDS011;38405;53.212;5.660;2023-03-21T09:39:35;21.83;;;13.93;;
52494;SDS011;38405;53.212;5.660;2023-03-21T09:47:30;27.17;;;12.90;;
52494;SDS011;38405;53.212;5.660;2023-03-21T09:50:21;23.90;;;12.43;;
52494;SDS011;38405;53.212;5.660;2023-03-21T09:52:59;19.88;;;12.85;;
52494;SDS011;38405;53.212;5.660;2023-03-21T09:55:30;20.63;;;12.55;;
52494;SDS011;38405;53.212;5.660;2023-03-21T10:00:50;18.02;;;10.93;;
52494;SDS011;38405;53.212;5.660;2023-03-21T10:06:10;18.73;;;10.98;;
52494;SDS011;38405;53.212;5.660;2023-03-21T10:08:40;22.50;;;10.85;;
52494;SDS011;38405;53.212;5.660;2023-03-21T10:11:10;17.58;;;10.02;;
52494;SDS011;38405;53.212;5.660;2023-03-21T10:13:52;18.30;;;9.88;;
52494;SDS011;38405;53.212;5.660;2023-03-21T10:16:31;15.32;;;9.57;;
52494;SDS011;38405;53.212;5.660;2023-03-21T10:19:02;15.43;;;10.00;;
52494;SDS011;38405;53.212;5.660;2023-03-21T10:21:34;16.63;;;9.55;;
52494;SDS011;38405;53.212;5.660;2023-03-21T10:26:36;16.80;;;9.02;;
52494;SDS011;38405;53.212;5.660;2023-03-21T10:29:01;15.05;;;8.30;;
52494;SDS011;38405;53.212;5.660;2023-03-21T10:31:27;15.35;;;8.60;;
52494;SDS011;38405;53.212;5.660;2023-03-21T10:33:55;14.20;;;7.90;;
52494;SDS011;38405;53.212;5.660;2023-03-21T10:36:26;14.00;;;7.68;;
52494;SDS011;38405;53.212;5.660;2023-03-21T10:38:55;13.10;;;7.43;;
52494;SDS011;38405;53.212;5.660;2023-03-21T10:41:23;13.27;;;7.10;;
52494;SDS011;38405;53.212;5.660;2023-03-21T10:44:10;11.13;;;5.65;;
52494;SDS011;38405;53.212;5.660;2023-03-21T10:46:38;10.73;;;5.93;;
52494;SDS011;38405;53.212;5.660;2023-03-21T10:49:29;10.57;;;6.05;;
52494;SDS011;38405;53.212;5.660;2023-03-21T10:51:56;10.55;;;5.53;;
52494;SDS011;38405;53.212;5.660;2023-03-21T10:54:27;10.80;;;5.50;;
52494;SDS011;38405;53.212;5.660;2023-03-21T10:56:56;10.43;;;5.68;;
52494;SDS011;38405;53.212;5.660;2023-03-21T10:59:42;11.13;;;6.20;;
52494;SDS011;38405;53.212;5.660;2023-03-21T11:02:18;11.48;;;5.32;;
52494;SDS011;38405;53.212;5.660;2023-03-21T11:04:49;11.63;;;6.03;;
52494;SDS011;38405;53.212;5.660;2023-03-21T11:07:18;11.98;;;6.03;;
52494;SDS011;38405;53.212;5.660;2023-03-21T11:09:48;12.25;;;6.10;;
52494;SDS011;38405;53.212;5.660;2023-03-21T11:12:35;14.75;;;6.13;;
52494;SDS011;38405;53.212;5.660;2023-03-21T11:15:48;13.93;;;6.07;;
52494;SDS011;38405;53.212;5.660;2023-03-21T11:17:52;13.45;;;6.68;;
52494;SDS011;38405;53.212;5.660;2023-03-21T11:20:18;15.77;;;6.93;;
52494;SDS011;38405;53.212;5.660;2023-03-21T11:22:44;11.85;;;6.70;;
52494;SDS011;38405;53.212;5.660;2023-03-21T11:25:26;10.70;;;6.35;;
52494;SDS011;38405;53.212;5.660;2023-03-21T11:28:04;14.27;;;6.65;;
52494;SDS011;38405;53.212;5.660;2023-03-21T11:30:32;11.38;;;6.85;;
52494;SDS011;38405;53.212;5.660;2023-03-21T11:33:02;12.95;;;6.70;;
52494;SDS011;38405;53.212;5.660;2023-03-21T11:35:34;13.43;;;7.13;;
52494;SDS011;38405;53.212;5.660;2023-03-21T11:38:02;17.05;;;6.72;;
52494;SDS011;38405;53.212;5.660;2023-03-21T11:43:00;11.52;;;7.15;;
52494;SDS011;38405;53.212;5.660;2023-03-21T11:45:29;11.20;;;6.57;;
52494;SDS011;38405;53.212;5.660;2023-03-21T11:47:57;14.25;;;7.32;;
52494;SDS011;38405;53.212;5.660;2023-03-21T11:50:46;12.05;;;7.40;;
52494;SDS011;38405;53.212;5.660;2023-03-21T12:06:52;14.10;;;8.10;;
52494;SDS011;38405;53.212;5.660;2023-03-21T12:15:02;11.30;;;8.13;;
52494;SDS011;38405;53.212;5.660;2023-03-21T12:22:53;16.80;;;8.80;;
52494;SDS011;38405;53.212;5.660;2023-03-21T12:31:32;14.70;;;8.10;;
52494;SDS011;38405;53.212;5.660;2023-03-21T12:34:07;12.45;;;8.32;;
52494;SDS011;38405;53.212;5.660;2023-03-21T12:36:49;16.50;;;9.73;;
52494;SDS011;38405;53.212;5.660;2023-03-21T12:42:04;16.63;;;8.50;;
52494;SDS011;38405;53.212;5.660;2023-03-21T12:44:59;19.33;;;9.20;;
52494;SDS011;38405;53.212;5.660;2023-03-21T12:47:32;21.02;;;9.00;;
52494;SDS011;38405;53.212;5.660;2023-03-21T12:50:14;18.92;;;9.48;;
52494;SDS011;38405;53.212;5.660;2023-03-21T12:52:46;14.95;;;9.25;;
52494;SDS011;38405;53.212;5.660;2023-03-21T12:55:20;19.63;;;10.50;;
52494;SDS011;38405;53.212;5.660;2023-03-21T12:57:53;18.02;;;10.90;;
52494;SDS011;38405;53.212;5.660;2023-03-21T13:00:34;14.48;;;10.18;;
52494;SDS011;38405;53.212;5.660;2023-03-21T13:05:49;16.83;;;10.23;;
52494;SDS011;38405;53.212;5.660;2023-03-21T13:08:24;19.60;;;10.55;;
52494;SDS011;38405;53.212;5.660;2023-03-21T13:10:56;17.77;;;11.38;;
52494;SDS011;38405;53.212;5.660;2023-03-21T13:32:39;19.85;;;13.10;;
52494;SDS011;38405;53.212;5.660;2023-03-21T13:38:00;18.02;;;11.93;;
52494;SDS011;38405;53.212;5.660;2023-03-21T13:43:28;16.85;;;12.05;;
52494;SDS011;38405;53.212;5.660;2023-03-21T13:54:03;17.65;;;12.20;;
52494;SDS011;38405;53.212;5.660;2023-03-21T14:05:04;14.20;;;7.68;;
52494;SDS011;38405;53.212;5.660;2023-03-21T14:07:32;12.02;;;7.53;;
52494;SDS011;38405;53.212;5.660;2023-03-21T14:12:57;10.73;;;5.63;;
52494;SDS011;38405;53.212;5.660;2023-03-21T14:15:43;12.50;;;6.50;;
52494;SDS011;38405;53.212;5.660;2023-03-21T14:18:22;12.63;;;6.53;;
52494;SDS011;38405;53.212;5.660;2023-03-21T14:20:53;15.20;;;6.18;;
52494;SDS011;38405;53.212;5.660;2023-03-21T14:23:20;9.55;;;5.38;;
52494;SDS011;38405;53.212;5.660;2023-03-21T14:25:47;10.75;;;5.47;;
52494;SDS011;38405;53.212;5.660;2023-03-21T14:28:34;10.38;;;5.47;;
52494;SDS011;38405;53.212;5.660;2023-03-21T14:31:00;10.75;;;4.82;;
52494;SDS011;38405;53.212;5.660;2023-03-21T14:33:31;8.90;;;4.78;;
52494;SDS011;38405;53.212;5.660;2023-03-21T14:36:04;10.25;;;4.60;;
52494;SDS011;38405;53.212;5.660;2023-03-21T14:38:36;16.70;;;4.22;;
52494;SDS011;38405;53.212;5.660;2023-03-21T14:41:03;12.57;;;4.15;;
52494;SDS011;38405;53.212;5.660;2023-03-21T14:43:30;10.43;;;4.63;;
52494;SDS011;38405;53.212;5.660;2023-03-21T14:45:59;12.57;;;5.00;;
52494;SDS011;38405;53.212;5.660;2023-03-21T14:48:31;10.98;;;5.60;;
52494;SDS011;38405;53.212;5.660;2023-03-21T14:51:03;19.27;;;6.90;;
52494;SDS011;38405;53.212;5.660;2023-03-21T14:53:34;15.55;;;7.03;;
52494;SDS011;38405;53.212;5.660;2023-03-21T14:56:05;14.77;;;7.18;;
52494;SDS011;38405;53.212;5.660;2023-03-21T14:58:32;10.18;;;6.75;;
52494;SDS011;38405;53.212;5.660;2023-03-21T15:01:02;11.80;;;6.80;;
52494;SDS011;38405;53.212;5.660;2023-03-21T15:03:29;11.50;;;7.70;;
52494;SDS011;38405;53.212;5.660;2023-03-21T15:05:56;15.00;;;7.78;;
52494;SDS011;38405;53.212;5.660;2023-03-21T15:08:23;17.25;;;8.32;;
52494;SDS011;38405;53.212;5.660;2023-03-21T15:11:01;18.55;;;7.85;;
52494;SDS011;38405;53.212;5.660;2023-03-21T15:13:29;15.27;;;8.18;;
52494;SDS011;38405;53.212;5.660;2023-03-21T15:16:00;12.07;;;7.38;;
52494;SDS011;38405;53.212;5.660;2023-03-21T15:18:28;16.23;;;7.82;;
52494;SDS011;38405;53.212;5.660;2023-03-21T15:20:57;15.30;;;7.97;;
52494;SDS011;38405;53.212;5.660;2023-03-21T15:23:35;15.63;;;7.63;;
52494;SDS011;38405;53.212;5.660;2023-03-21T15:26:06;14.98;;;7.80;;
52494;SDS011;38405;53.212;5.660;2023-03-21T15:28:37;15.48;;;8.32;;
52494;SDS011;38405;53.212;5.660;2023-03-21T15:31:02;14.02;;;9.13;;
52494;SDS011;38405;53.212;5.660;2023-03-21T15:33:30;16.00;;;8.35;;
52494;SDS011;38405;53.212;5.660;2023-03-21T15:35:57;19.30;;;8.27;;
52494;SDS011;38405;53.212;5.660;2023-03-21T15:43:47;14.40;;;11.27;;
52494;SDS011;38405;53.212;5.660;2023-03-21T15:46:30;15.95;;;11.05;;
52494;SDS011;38405;53.212;5.660;2023-03-21T15:51:59;20.05;;;11.27;;
52494;SDS011;38405;53.212;5.660;2023-03-21T15:54:46;16.58;;;11.23;;
52494;SDS011;38405;53.212;5.660;2023-03-21T15:57:24;14.70;;;10.10;;
52494;SDS011;38405;53.212;5.660;2023-03-21T16:02:42;14.02;;;9.60;;
52494;SDS011;38405;53.212;5.660;2023-03-21T16:10:46;11.68;;;8.35;;
52494;SDS011;38405;53.212;5.660;2023-03-21T16:13:13;12.50;;;7.80;;
52494;SDS011;38405;53.212;5.660;2023-03-21T16:15:41;11.13;;;6.90;;
52494;SDS011;38405;53.212;5.660;2023-03-21T16:18:11;13.57;;;7.97;;
52494;SDS011;38405;53.212;5.660;2023-03-21T16:20:39;12.63;;;7.70;;
52494;SDS011;38405;53.212;5.660;2023-03-21T16:23:10;14.52;;;8.45;;
52494;SDS011;38405;53.212;5.660;2023-03-21T16:25:36;12.40;;;7.90;;
52494;SDS011;38405;53.212;5.660;2023-03-21T16:28:02;14.13;;;8.63;;
52494;SDS011;38405;53.212;5.660;2023-03-21T16:30:29;12.20;;;8.68;;
52494;SDS011;38405;53.212;5.660;2023-03-21T16:32:54;12.23;;;8.48;;
52494;SDS011;38405;53.212;5.660;2023-03-21T16:35:20;17.08;;;9.63;;
52494;SDS011;38405;53.212;5.660;2023-03-21T16:37:46;12.90;;;9.07;;
52494;SDS011;38405;53.212;5.660;2023-03-21T16:42:46;13.93;;;9.50;;
52494;SDS011;38405;53.212;5.660;2023-03-21T16:45:11;12.48;;;8.63;;
52494;SDS011;38405;53.212;5.660;2023-03-21T16:47:37;15.57;;;7.63;;
52494;SDS011;38405;53.212;5.660;2023-03-21T16:53:00;11.07;;;7.25;;
52494;SDS011;38405;53.212;5.660;2023-03-21T16:55:27;14.88;;;7.90;;
52494;SDS011;38405;53.212;5.660;2023-03-21T16:57:56;8.88;;;6.50;;
52494;SDS011;38405;53.212;5.660;2023-03-21T17:00:22;9.23;;;6.35;;
52494;SDS011;38405;53.212;5.660;2023-03-21T17:02:51;12.35;;;6.35;;
52494;SDS011;38405;53.212;5.660;2023-03-21T17:05:19;10.15;;;6.10;;
52494;SDS011;38405;53.212;5.660;2023-03-21T17:07:45;13.20;;;6.03;;
52494;SDS011;38405;53.212;5.660;2023-03-21T17:10:12;11.65;;;6.18;;
52494;SDS011;38405;53.212;5.660;2023-03-21T17:12:46;11.10;;;7.32;;
52494;SDS011;38405;53.212;5.660;2023-03-21T17:15:13;10.68;;;6.30;;
52494;SDS011;38405;53.212;5.660;2023-03-21T17:17:40;8.50;;;5.78;;